Preview of NWS' New Version of Forecast
This preview is not operational and should not be used for support decisions.
Latest weather observations around

Allen County Airport (KK88)

Using International System of Units (Switch to English Units)
Date/ Time (CDT) Wind (kph) Vis. (km) Weather Sky Cond. Temp (°C) Rel. Humidity Wind Chill (°C) Heat Index (°C) Pressure Precip. (cm)
Air Dwpt 6 hour Altimeter (hPa) Sea level (hPa) 1 hr 3 hr 6 hr
Max Min
Apr 20 21:15   16.09 Clear   16 7     56%     1011.18        
Apr 20 20:55   16.09 Clear   17 7     51%     1011.18        
Apr 20 20:35   16.09 Clear   18 7     49%     1010.84        
Apr 20 20:15   16.09 Clear   18 7     48%     1010.84        
Apr 20 19:55   16.09 Clear   20 7     44%     1010.84        
Apr 20 19:35   16.09 Clear   21 7     41%     1010.84        
Apr 20 19:15   16.09 Clear   22 6     36%   21 1010.84        
Apr 20 18:55   16.09 Clear   22 6     35%   21 1010.84        
Apr 20 18:35   16.09 Clear   23 6     34%   22 1011.18        
Apr 20 18:15   16.09 Clear   23 6     33%   22 1011.18        
Apr 20 17:55   16.09 Clear   23 6     33%   22 1011.18        
Apr 20 17:35   16.09 Clear   23 6     34%   22 1011.18        
Apr 20 17:15   16.09 Clear   23 5     31%   22 1011.51        
Apr 20 16:55   16.09 Clear   23 6     31%   23 1011.85        
Apr 20 16:35   16.09 Clear CLR 23 6     33%   22 1012.19        
Apr 20 16:15   16.09 Clear CLR 23 6     33%   22 1012.53        
Apr 20 15:55   16.09 Clear   23 6     33%   22 1012.87        
Apr 20 15:35   16.09 Clear CLR 23 6     33%   22 1013.21        
Apr 20 15:15   16.09 Clear   23 5     33%   22 1013.55        
Apr 20 14:55   16.09 Clear   22 5     33%   21 1013.88        
Apr 20 14:35   16.09 Clear CLR 22 5     33%   21 1013.88        
Apr 20 14:15   16.09 Clear   22 5     33%   21 1014.22        
Apr 20 13:55   16.09 Clear   21 5     35%   20 1014.56        
Apr 20 13:35   16.09 Clear   21 4     34%     1014.9        
Apr 20 13:15   16.09 Clear   20 4     35%     1015.24        
Apr 20 12:55   16.09 Clear   20 4     35%     1015.58        
Apr 20 12:35   16.09 Clear   20 5     37%     1015.58        
Apr 20 12:15   16.09 Clear   19 3     35%     1015.92        
Apr 20 11:55   16.09 Clear   19 3     36%     1015.92        
Apr 20 11:35   16.09 Clear   18 3     36%     1016.26        
Apr 20 11:15   16.09 Clear   18 3     37%     1016.26        
Apr 20 10:55   16.09 Clear   18 3     39%     1016.59        
Apr 20 10:35   16.09 Clear   17 4     43%     1016.26        
Apr 20 10:15   16.09 Clear   16 4     43%     1016.26        
Apr 20 09:55   16.09 Clear   15 5     49%     1016.26        
Apr 20 09:35   16.09 Clear   14 6     59%     1016.59        
Apr 20 09:15   16.09 Clear   13 6     66%     1016.26        
Apr 20 08:55   16.09 Clear   11 7     79%     1016.26        
Apr 20 08:35   16.09 Clear   9 7     84%     1016.59        
Apr 20 08:15   16.09 Clear   8 7     98%     1016.59        
Apr 20 07:55   16.09 Clear   6 6     100%     1016.59        
Apr 20 07:35   16.09 Clear CLR 4 4     99%     1016.59        
Apr 20 07:15   16.09 Clear CLR 4 3     97%     1016.26        
Apr 20 06:55   16.09 Clear   4 4     100%     1016.26        
Apr 20 06:35   16.09 Clear   3 3     100%     1016.26        
Apr 20 06:15   16.09 Clear CLR 3 3     100%     1015.92        
Apr 20 05:55   16.09 Clear   3 3     100%     1015.92        
Apr 20 05:35   16.09 Clear CLR 3 3     100%     1015.92        
Apr 20 05:15   16.09 Clear   3 3     100%     1015.58        
Apr 20 04:55   16.09 Clear   3 3     100%     1015.58        
Apr 20 04:35   16.09 Clear CLR 3 3     100%     1015.58        
Apr 20 04:15   16.09 Clear   3 3     100%     1015.58        
Apr 20 03:55   16.09 Clear   3 3     100%     1015.58        
Apr 20 03:35   16.09 Clear CLR 5 5     99%     1015.58        
Apr 20 03:15   16.09 Clear CLR 4 4     100%     1015.58        
Apr 20 02:55   16.09 Clear   4 3     99%     1015.58        
Apr 20 02:35   16.09 Clear   5 4     97%     1015.92        
Apr 20 02:15   16.09 Clear   5 4     93%     1015.92        
Apr 20 01:55   16.09 Clear   6 4     90%     1015.92        
Apr 20 01:35   16.09 Clear   6 4     89%     1015.92        
Apr 20 01:15   16.09 Clear   5 4     95%     1016.26        
Apr 20 00:55   16.09 Clear   5 4     92%     1016.26        
Apr 20 00:35   16.09 Clear CLR 5 4     91%     1016.26        
Apr 20 00:15   16.09 Clear   7 2     74%     1016.26        
Apr 19 23:55   16.09 Clear   8 2     69%     1016.26        
Apr 19 23:35   16.09 Clear CLR 9 2     63%     1016.26        
Apr 19 23:15   16.09 Clear   8 2     66%     1016.26        
Apr 19 22:55   16.09 Clear   8 4     77%     1016.26        
Apr 19 22:35   16.09 Clear CLR 7 4     85%     1016.26        
Apr 19 22:15   16.09 Clear   10 3     63%     1016.59        
Apr 19 21:55   16.09 Clear   8 4     79%     1016.26        
Apr 19 21:35   16.09 Clear   8 4     73%     1016.26        
Apr 19 21:15   16.09 Clear   10 3     59%     1015.92        
Apr 19 20:55   16.09 Clear   11 3     58%     1015.92        
Apr 19 20:35   16.09 Clear   11 3     59%     1015.92        
Apr 19 20:15   16.09 Clear   11 3     55%     1015.58        
Apr 19 19:55   16.09 Clear   12 2     49%     1015.92        
Apr 19 19:35   16.09 Clear   14 1     41%     1015.58        
Apr 19 19:15   16.09 Clear   15 1     40%     1015.58        
Apr 19 18:55   16.09 Clear   16 1     37%     1015.92        
Apr 19 18:35   16.09 Clear   16 1     35%     1015.92        
Apr 19 18:15   16.09 Clear   16 0     34%     1015.58        
Apr 19 17:55   16.09 Clear   17 1     34%     1015.92        
Apr 19 17:35   16.09 Clear   17 0     33%     1015.58        
Apr 19 17:15   16.09 Clear   17 1     34%     1015.92        
Apr 19 16:55   16.09 Clear   17 1     35%     1015.92        
Apr 19 16:35   16.09 Clear   17 2     36%     1015.92        
Apr 19 16:15   16.09 Clear   17 1     36%     1015.92        
Apr 19 15:55   16.09 Clear CLR 17 2     37%     1016.26        
Apr 19 15:35   16.09 Partly Cloudy SCT060 17 2     37%     1016.26        
Apr 19 15:15   16.09 Partly Cloudy SCT060 16 2     39%     1016.59        
Apr 19 14:55   16.09 Clear   16 2     38%     1016.93        
Apr 19 14:35   16.09 Clear   15 2     41%     1016.93        
Apr 19 14:15   16.09 Clear   15 2     41%     1016.93        
Apr 19 13:55   16.09 Partly Cloudy SCT050 15 3     43%     1017.27        
Apr 19 13:35   16.09 Partly Cloudy SCT050 15 3     44%     1017.27        
Apr 19 13:15   16.09 Clear   14 3     46%     1017.61        
Apr 19 12:55   16.09 Clear   14 2     44%     1017.61        
Apr 19 12:35   16.09 Clear   15 3     45%     1017.95        
Apr 19 12:15   16.09 Clear   14 3     47%     1017.95        
Apr 19 11:55   16.09 Clear   14 3     48%     1017.95        
Apr 19 11:35   16.09 Clear   14 4     49%     1017.95        
Apr 19 11:15   16.09 Clear   13 5     56%     1017.95        
Apr 19 10:55   16.09 Clear   13 4     58%     1017.95        
Apr 19 10:35   16.09 Clear   12 5     60%     1017.95        
Apr 19 10:15   16.09 Clear   12 5     64%     1017.95        
Apr 19 09:55   16.09 Clear   11 5     67%     1017.95        
Apr 19 09:35   16.09 Clear   11 6     71%     1017.95        
Apr 19 09:15   16.09 Clear   10 5     73%     1017.61        
Apr 19 08:55   16.09 Clear   10 6     76%     1017.61        
Apr 19 08:35   16.09 Clear   9 5     79%     1017.61        
Apr 19 08:15   16.09 Clear CLR 8 5     82%     1017.27        
Apr 19 07:55   16.09 Clear   8 5     84%     1017.27        
Apr 19 07:35   16.09 Clear CLR 7 6     89%     1016.93        
Apr 19 07:15   16.09 Clear   7 6     93%     1016.93        
Apr 19 06:55   16.09 Clear   6 6     94%     1016.59        
Apr 19 06:35   16.09 Clear CLR 6 6     95%     1016.26        
Apr 19 06:15   16.09 Clear CLR 7 6     93%     1015.92        
Apr 19 05:55   16.09 Clear   7 6     92%     1015.92        
Apr 19 05:35   16.09 Clear CLR 7 6     90%     1015.58        
Apr 19 05:15   16.09 Clear   7 5     87%     1015.58        
Apr 19 04:55   16.09 Clear   8 5     87%     1015.24        
Apr 19 04:35   16.09 Clear CLR 8 6     87%     1015.24        
Apr 19 04:15   16.09 Clear CLR 8 5     85%     1015.24        
Apr 19 03:55   16.09 Clear   8 6     84%     1014.9        
Apr 19 03:35   16.09 Clear CLR 8 5     78%     1014.9        
Apr 19 03:15   16.09 Clear   9 5     76%     1014.9        
Apr 19 02:55   16.09 Clear   9 7     84%     1014.56        
Apr 19 02:35   16.09 Clear   9 7     83%     1014.56        
Apr 19 02:15   16.09 Clear   9 7     87%     1014.56        
Apr 19 01:55   16.09 Clear   9 7     84%     1014.56        
Apr 19 01:35   16.09 Mostly Cloudy BKN090 9 7     87%     1014.56        
Apr 19 01:15   16.09 Clear   9 6     85%     1014.22        
Apr 19 00:55   16.09 Clear   10 7     81%     1014.22        
Apr 19 00:35   16.09 Clear   10 7     79%     1013.55        
Apr 19 00:15   16.09 Clear   10 6     77%     1013.55        
Apr 18 23:55   16.09 Clear   10 7     82%     1013.55        
Apr 18 23:35   16.09 Mostly Cloudy SCT075 BKN100 10 7     80%     1013.21        
Apr 18 23:15   16.09 Clear   10 7     83%     1012.87        
Apr 18 22:55   16.09 Clear   11 8     82%     1012.53        
Apr 18 22:35   16.09 Mostly Cloudy SCT070 BKN080 BKN090 10 8     84%     1012.53        
Apr 18 22:15   16.09 Clear   10 7     80%     1012.53        
Apr 18 21:55   16.09 Clear   10 8     84%     1012.19        
Apr 18 21:35   16.09 Clear   11 7     77%     1011.85        
Apr 18 21:15   16.09 Clear   11 6     71%     1011.51        
Apr 18 20:55   16.09 Clear   11 7     78%     1011.51        
Apr 18 20:35   16.09 Clear   12 6     67%     1011.18        
Apr 18 20:15   16.09 Clear   12 5     64%     1011.18        
Apr 18 19:55   16.09 Clear   13 5     59%     1011.18        
Apr 18 19:35   16.09 Clear   13 5     60%     1011.18        
Apr 18 19:15   16.09 Clear   14 4     50%     1010.84        
Apr 18 18:55   16.09 Clear   16 3     44%     1010.5        
Apr 18 18:35   16.09 Clear   16 3     40%     1010.5        
Apr 18 18:15   16.09 Clear   17 4     42%     1010.5        
Apr 18 17:55   16.09 Clear   17 3     41%     1010.5        
Apr 18 17:35   16.09 Clear   18 4     41%     1010.16        
Apr 18 17:15   16.09 Clear   17 4     42%     1010.5        
Apr 18 16:55   16.09 Clear   17 3     40%     1010.5        
Apr 18 16:35   16.09 Partly Cloudy SCT065 SCT090 16 4     43%     1010.5        
Apr 18 16:15   16.09 Clear   17 4     42%     1010.16        
Apr 18 15:55   16.09 Clear   16 4     45%     1010.5        
Apr 18 15:35   16.09 Clear   17 5     44%     1010.16        
Apr 18 15:15   16.09 Clear   17 4     43%     1010.16        
Apr 18 14:55   16.09 Clear   17 5     48%     1010.5        
Apr 18 14:35   16.09 Clear   16 6     52%     1010.84        
Apr 18 14:15   16.09 Clear   16 6     53%     1010.84        
Apr 18 13:55   16.09 Clear   15 6     55%     1011.18        
Apr 18 13:35   16.09 Clear   15 7     57%     1011.51        
Apr 18 13:15   16.09 Partly Cloudy SCT039 15 7     59%     1011.51        
Apr 18 12:55   16.09 Clear   14 7     63%     1011.85        
Apr 18 12:35   16.09 Partly Cloudy SCT034 SCT042 14 7     63%     1012.53        
Apr 18 12:15   16.09 Clear   14 8     65%     1012.87        
Apr 18 11:55   16.09 Clear   13 7     69%     1012.53        
Apr 18 11:35   16.09 Clear   13 8     70%     1012.87        
Apr 18 11:15   16.09 Clear   13 8     73%     1012.53        
Apr 18 10:55   16.09 Clear   12 8     76%     1012.53        
Apr 18 10:35   16.09 Clear   11 8     79%     1011.85        
Apr 18 10:15   16.09 Clear   11 8     78%     1011.85        
Apr 18 09:55   16.09 Clear   10 8     84%     1012.19        
Apr 18 09:35   16.09 Cloudy OVC021 10 8     86%     1011.85        
Apr 18 09:15   16.09 Cloudy OVC019 10 8     90%     1011.85        
Apr 18 08:55   16.09 Clear   10 9     92%     1011.85        
Apr 18 08:35   16.09 Clear   10 9     94%     1011.51        
Apr 18 08:15   16.09 Clear   10 9     95%     1011.51        
Apr 18 07:55   16.09 Clear   9 9     98%     1011.51        
Apr 18 07:35   16.09 Partly Cloudy SCT020 9 9     99%     1011.18        
Apr 18 07:15   16.09 Clear   9 9     98%     1010.5        
Apr 18 06:55   16.09 Clear   9 9     97%              
Apr 18 06:35   16.09 Clear   9 9     96%     1008.81        
Apr 18 06:15   16.09 Clear   10 9     96%     1007.79        
Apr 18 05:55   16.09 Clear   10 9     96%     1007.79        
Apr 18 05:35   16.09 Clear   10 10     99%     1007.11        
Apr 18 05:15   16.09 Clear   10 10     100%     1007.11        
Apr 18 04:55   16.09 Clear   10 10     100%     1006.77        
Apr 18 04:35   16.09 Clear   10 10     100%     1006.77        
Apr 18 04:15   16.09 Partly Cloudy SCT020 SCT039 SCT120 11 11     100%     1007.79        
Apr 18 03:55   16.09 Clear   11 11     100%     1007.45        
Apr 18 03:35   16.09 Clear   11 11     100%     1007.79        
Apr 18 03:15   16.09 Clear   11 11     100%     1007.45        
Apr 18 02:55   16.09 Cloudy OVC012 12 12     100%     1007.45        
Apr 18 02:35   16.09 Clear   12 12     100%     1005.76        
Apr 18 02:15   16.09 Clear   12 12     100%     1005.42        
Apr 18 01:55   11.27 Clear   12 12     100%     1004.4        
Apr 18 01:35   11.27 Cloudy SCT009 OVC017 13 13     100%     1008.81   0    
Apr 18 01:15   8.05 Clear   13 13     100%     1008.13        
Apr 18 00:55   8.05 Clear   14 14     100%     1008.13        
Apr 18 00:35   6.44 Cloudy BKN010 OVC017 14 14     100%     1007.45   0    
Apr 18 00:15   11.27 Clear   14 14     100%     1006.1        
Apr 17 23:55   8.05 Clear   14 14     100%     1005.76        
Apr 17 23:35   6.44 Cloudy BKN010 BKN017 OVC023 14 14     100%     1006.1   2    
Apr 17 23:15   1.21 Cloudy BKN008 OVC014 15 15     100%     1006.43   1    
Apr 17 22:55   8.05 Clear   15 15     100%     1005.76        
Apr 17 22:35   16.09 Cloudy SCT017 BKN025 OVC048 17 15     86%     1006.77        
Apr 17 22:15   16.09 Clear   20 19     94%     1005.76        
Apr 17 21:55   16.09 Clear   21 19     92%     1005.08        
Apr 17 21:35   16.09 Mostly Cloudy BKN060 BKN070 21 19     91%     1004.4        
Apr 17 21:15   16.09 Clear   21 19     89%     1004.06        
May 15 11:15 W 13 16.09 Clear   22 17     72%   23 1016.26        
May 15 05:35 Calm 16.09 Clear   16 16     97%     1012.87        
Notice The following observation data may not be complete
May 14 16:15   4.83 Clear     14      %     1010.16        
May 14 13:35 SSW 11 16.09 Clear   29 20     58%   31 1013.21        
May 14 06:15 SSE 13 16.09 Clear   21 18     81%     1013.21        
May 14 01:55 Calm 16.09 Clear   21 17     80%     1014.56        
May 13 23:15 Calm 16.09 Clear   22 17     73%   22 1015.24        
May 13 12:15 S 30 16.09 Clear   29 19     56%   31 1015.58        
May 13 09:55 S 24 16.09 Clear   25 19     72%   25 1015.92        
May 13 01:15 S 19 16.09 Clear   22 18     76%   22 1014.9        
May 12 18:35 S 19 16.09 Clear   27 19     63%   28 1012.53        
May 12 13:15 S 31 16.09 Clear   27 19     60%   28 1012.87        
May 12 05:15 SSE 19 16.09 Clear   21 16     72%   21 1010.5        
May 12 03:15 SSE 15 16.09 Clear   21 16     74%   21 1011.18        
May 11 08:35   16.09 Clear   21 15     69%   21 1007.79